sensor_id;sensor_type;location;lat;lon;timestamp;P1;durP1;ratioP1;P2;durP2;ratioP2
79074;SDS011;68476;42.710;23.388;2024-02-15T00:01:55;10.38;;;6.70;;
79074;SDS011;68476;42.710;23.388;2024-02-15T00:04:20;9.10;;;7.03;;
79074;SDS011;68476;42.710;23.388;2024-02-15T00:06:46;10.68;;;7.55;;
79074;SDS011;68476;42.710;23.388;2024-02-15T00:09:11;8.77;;;7.35;;
79074;SDS011;68476;42.710;23.388;2024-02-15T00:11:37;9.25;;;6.45;;
79074;SDS011;68476;42.710;23.388;2024-02-15T00:14:04;10.85;;;8.75;;
79074;SDS011;68476;42.710;23.388;2024-02-15T00:16:30;11.60;;;7.25;;
79074;SDS011;68476;42.710;23.388;2024-02-15T00:18:55;9.77;;;7.10;;
79074;SDS011;68476;42.710;23.388;2024-02-15T00:21:21;11.55;;;7.38;;
79074;SDS011;68476;42.710;23.388;2024-02-15T00:23:48;11.35;;;7.85;;
79074;SDS011;68476;42.710;23.388;2024-02-15T00:26:14;10.07;;;7.15;;
79074;SDS011;68476;42.710;23.388;2024-02-15T00:28:43;8.65;;;6.80;;
79074;SDS011;68476;42.710;23.388;2024-02-15T00:31:08;11.85;;;6.90;;
79074;SDS011;68476;42.710;23.388;2024-02-15T00:33:34;9.88;;;7.00;;
79074;SDS011;68476;42.710;23.388;2024-02-15T00:36:02;10.85;;;7.35;;
79074;SDS011;68476;42.710;23.388;2024-02-15T00:38:29;9.98;;;6.88;;
79074;SDS011;68476;42.710;23.388;2024-02-15T00:40:54;8.57;;;6.38;;
79074;SDS011;68476;42.710;23.388;2024-02-15T00:43:20;9.93;;;7.20;;
79074;SDS011;68476;42.710;23.388;2024-02-15T00:45:45;10.18;;;6.88;;
79074;SDS011;68476;42.710;23.388;2024-02-15T00:48:11;10.90;;;7.38;;
79074;SDS011;68476;42.710;23.388;2024-02-15T00:50:37;11.20;;;7.53;;
79074;SDS011;68476;42.710;23.388;2024-02-15T00:53:03;10.65;;;6.97;;
79074;SDS011;68476;42.710;23.388;2024-02-15T00:55:28;10.18;;;6.47;;
79074;SDS011;68476;42.710;23.388;2024-02-15T00:57:54;9.10;;;6.55;;
79074;SDS011;68476;42.710;23.388;2024-02-15T01:00:19;10.45;;;7.78;;
79074;SDS011;68476;42.710;23.388;2024-02-15T01:02:45;10.27;;;6.90;;
79074;SDS011;68476;42.710;23.388;2024-02-15T01:05:11;11.38;;;6.95;;
79074;SDS011;68476;42.710;23.388;2024-02-15T01:07:37;10.65;;;6.93;;
79074;SDS011;68476;42.710;23.388;2024-02-15T01:10:02;9.43;;;7.50;;
79074;SDS011;68476;42.710;23.388;2024-02-15T01:12:28;9.65;;;6.85;;
79074;SDS011;68476;42.710;23.388;2024-02-15T01:14:54;10.90;;;6.95;;
79074;SDS011;68476;42.710;23.388;2024-02-15T01:17:21;10.57;;;6.75;;
79074;SDS011;68476;42.710;23.388;2024-02-15T01:19:47;9.32;;;6.30;;
79074;SDS011;68476;42.710;23.388;2024-02-15T01:22:12;9.38;;;6.57;;
79074;SDS011;68476;42.710;23.388;2024-02-15T01:24:37;9.43;;;6.47;;
79074;SDS011;68476;42.710;23.388;2024-02-15T01:27:03;10.15;;;7.10;;
79074;SDS011;68476;42.710;23.388;2024-02-15T01:29:29;13.27;;;8.25;;
79074;SDS011;68476;42.710;23.388;2024-02-15T01:31:54;10.73;;;6.05;;
79074;SDS011;68476;42.710;23.388;2024-02-15T01:34:20;11.45;;;7.60;;
79074;SDS011;68476;42.710;23.388;2024-02-15T01:36:47;10.20;;;6.90;;
79074;SDS011;68476;42.710;23.388;2024-02-15T01:39:15;10.52;;;7.15;;
79074;SDS011;68476;42.710;23.388;2024-02-15T01:41:41;9.90;;;6.88;;
79074;SDS011;68476;42.710;23.388;2024-02-15T01:44:13;9.75;;;6.35;;
79074;SDS011;68476;42.710;23.388;2024-02-15T01:46:38;10.68;;;7.15;;
79074;SDS011;68476;42.710;23.388;2024-02-15T01:49:04;11.00;;;7.22;;
79074;SDS011;68476;42.710;23.388;2024-02-15T01:51:32;9.90;;;7.15;;
79074;SDS011;68476;42.710;23.388;2024-02-15T01:54:00;8.98;;;5.80;;
79074;SDS011;68476;42.710;23.388;2024-02-15T01:56:26;11.73;;;7.40;;
79074;SDS011;68476;42.710;23.388;2024-02-15T01:58:53;11.88;;;7.07;;
79074;SDS011;68476;42.710;23.388;2024-02-15T02:01:18;11.35;;;7.30;;
79074;SDS011;68476;42.710;23.388;2024-02-15T02:03:46;9.68;;;7.15;;
79074;SDS011;68476;42.710;23.388;2024-02-15T02:06:11;8.90;;;6.00;;
79074;SDS011;68476;42.710;23.388;2024-02-15T02:08:37;10.07;;;5.85;;
79074;SDS011;68476;42.710;23.388;2024-02-15T02:11:03;11.63;;;7.15;;
79074;SDS011;68476;42.710;23.388;2024-02-15T02:13:29;10.57;;;6.72;;
79074;SDS011;68476;42.710;23.388;2024-02-15T02:15:54;9.88;;;6.20;;
79074;SDS011;68476;42.710;23.388;2024-02-15T02:18:21;10.43;;;6.85;;
79074;SDS011;68476;42.710;23.388;2024-02-15T02:20:49;9.77;;;5.78;;
79074;SDS011;68476;42.710;23.388;2024-02-15T02:23:15;10.45;;;7.35;;
79074;SDS011;68476;42.710;23.388;2024-02-15T02:25:44;9.50;;;6.00;;
79074;SDS011;68476;42.710;23.388;2024-02-15T02:28:11;10.85;;;7.30;;
79074;SDS011;68476;42.710;23.388;2024-02-15T02:30:37;11.35;;;7.35;;
79074;SDS011;68476;42.710;23.388;2024-02-15T02:33:05;8.40;;;6.05;;
79074;SDS011;68476;42.710;23.388;2024-02-15T02:35:32;14.15;;;7.40;;
79074;SDS011;68476;42.710;23.388;2024-02-15T02:37:58;11.38;;;7.20;;
79074;SDS011;68476;42.710;23.388;2024-02-15T02:40:23;9.15;;;6.85;;
79074;SDS011;68476;42.710;23.388;2024-02-15T02:42:51;11.32;;;7.00;;
79074;SDS011;68476;42.710;23.388;2024-02-15T02:45:26;10.13;;;7.32;;
79074;SDS011;68476;42.710;23.388;2024-02-15T02:47:52;12.65;;;7.05;;
79074;SDS011;68476;42.710;23.388;2024-02-15T02:50:18;10.38;;;7.20;;
79074;SDS011;68476;42.710;23.388;2024-02-15T02:52:44;12.27;;;7.72;;
79074;SDS011;68476;42.710;23.388;2024-02-15T02:55:10;10.55;;;7.40;;
79074;SDS011;68476;42.710;23.388;2024-02-15T02:57:39;11.73;;;7.85;;
79074;SDS011;68476;42.710;23.388;2024-02-15T03:00:07;11.60;;;6.97;;
79074;SDS011;68476;42.710;23.388;2024-02-15T03:02:37;9.18;;;5.68;;
79074;SDS011;68476;42.710;23.388;2024-02-15T03:05:10;10.70;;;7.25;;
79074;SDS011;68476;42.710;23.388;2024-02-15T03:07:36;12.40;;;7.40;;
79074;SDS011;68476;42.710;23.388;2024-02-15T03:10:03;10.85;;;6.60;;
79074;SDS011;68476;42.710;23.388;2024-02-15T03:12:32;14.95;;;7.85;;
79074;SDS011;68476;42.710;23.388;2024-02-15T03:15:00;12.43;;;7.10;;
79074;SDS011;68476;42.710;23.388;2024-02-15T03:17:26;11.25;;;7.85;;
79074;SDS011;68476;42.710;23.388;2024-02-15T03:19:52;9.48;;;6.57;;
79074;SDS011;68476;42.710;23.388;2024-02-15T03:22:18;12.50;;;6.97;;
79074;SDS011;68476;42.710;23.388;2024-02-15T03:24:43;9.95;;;6.05;;
79074;SDS011;68476;42.710;23.388;2024-02-15T03:27:09;9.02;;;6.03;;
79074;SDS011;68476;42.710;23.388;2024-02-15T03:29:37;13.10;;;8.10;;
79074;SDS011;68476;42.710;23.388;2024-02-15T03:32:03;11.70;;;7.68;;
79074;SDS011;68476;42.710;23.388;2024-02-15T03:34:30;12.70;;;7.22;;
79074;SDS011;68476;42.710;23.388;2024-02-15T03:36:56;10.93;;;6.70;;
79074;SDS011;68476;42.710;23.388;2024-02-15T03:39:22;10.35;;;6.35;;
79074;SDS011;68476;42.710;23.388;2024-02-15T03:41:48;10.75;;;7.57;;
79074;SDS011;68476;42.710;23.388;2024-02-15T03:44:15;12.20;;;7.53;;
79074;SDS011;68476;42.710;23.388;2024-02-15T03:46:43;12.80;;;7.75;;
79074;SDS011;68476;42.710;23.388;2024-02-15T03:49:09;11.05;;;7.53;;
79074;SDS011;68476;42.710;23.388;2024-02-15T03:51:36;12.00;;;7.80;;
79074;SDS011;68476;42.710;23.388;2024-02-15T03:54:01;14.48;;;8.38;;
79074;SDS011;68476;42.710;23.388;2024-02-15T03:56:29;14.57;;;8.15;;
79074;SDS011;68476;42.710;23.388;2024-02-15T03:58:57;10.30;;;7.10;;
79074;SDS011;68476;42.710;23.388;2024-02-15T04:01:23;10.73;;;7.55;;
79074;SDS011;68476;42.710;23.388;2024-02-15T04:03:48;10.60;;;7.20;;
79074;SDS011;68476;42.710;23.388;2024-02-15T04:06:14;12.30;;;7.95;;
79074;SDS011;68476;42.710;23.388;2024-02-15T04:08:40;11.80;;;7.55;;
79074;SDS011;68476;42.710;23.388;2024-02-15T04:11:05;13.02;;;8.43;;
79074;SDS011;68476;42.710;23.388;2024-02-15T04:13:32;11.07;;;7.72;;
79074;SDS011;68476;42.710;23.388;2024-02-15T04:15:58;11.40;;;7.30;;
79074;SDS011;68476;42.710;23.388;2024-02-15T04:18:24;10.05;;;6.88;;
79074;SDS011;68476;42.710;23.388;2024-02-15T04:20:49;12.43;;;7.40;;
79074;SDS011;68476;42.710;23.388;2024-02-15T04:23:16;14.27;;;7.10;;
79074;SDS011;68476;42.710;23.388;2024-02-15T04:25:42;12.48;;;8.10;;
79074;SDS011;68476;42.710;23.388;2024-02-15T04:28:09;12.38;;;7.75;;
79074;SDS011;68476;42.710;23.388;2024-02-15T04:30:35;11.18;;;7.10;;
79074;SDS011;68476;42.710;23.388;2024-02-15T04:33:03;12.48;;;8.20;;
79074;SDS011;68476;42.710;23.388;2024-02-15T04:35:30;11.52;;;7.95;;
79074;SDS011;68476;42.710;23.388;2024-02-15T04:37:56;11.23;;;7.10;;
79074;SDS011;68476;42.710;23.388;2024-02-15T04:40:22;11.60;;;8.25;;
79074;SDS011;68476;42.710;23.388;2024-02-15T04:42:48;11.50;;;7.43;;
79074;SDS011;68476;42.710;23.388;2024-02-15T04:45:13;14.60;;;7.65;;
79074;SDS011;68476;42.710;23.388;2024-02-15T04:47:43;12.70;;;7.85;;
79074;SDS011;68476;42.710;23.388;2024-02-15T04:50:10;19.77;;;8.30;;
79074;SDS011;68476;42.710;23.388;2024-02-15T04:52:36;13.20;;;7.85;;
79074;SDS011;68476;42.710;23.388;2024-02-15T04:55:02;12.65;;;7.75;;
79074;SDS011;68476;42.710;23.388;2024-02-15T04:57:30;13.02;;;6.60;;
79074;SDS011;68476;42.710;23.388;2024-02-15T04:59:56;13.77;;;7.93;;
79074;SDS011;68476;42.710;23.388;2024-02-15T05:02:21;14.57;;;7.85;;
79074;SDS011;68476;42.710;23.388;2024-02-15T05:04:49;17.20;;;7.18;;
79074;SDS011;68476;42.710;23.388;2024-02-15T05:07:21;13.63;;;8.68;;
79074;SDS011;68476;42.710;23.388;2024-02-15T05:09:48;13.05;;;8.60;;
79074;SDS011;68476;42.710;23.388;2024-02-15T05:12:21;14.27;;;8.88;;
79074;SDS011;68476;42.710;23.388;2024-02-15T05:14:49;12.32;;;7.63;;
79074;SDS011;68476;42.710;23.388;2024-02-15T05:17:15;12.65;;;7.90;;
79074;SDS011;68476;42.710;23.388;2024-02-15T05:19:41;13.60;;;7.82;;
79074;SDS011;68476;42.710;23.388;2024-02-15T05:22:07;14.70;;;7.60;;
79074;SDS011;68476;42.710;23.388;2024-02-15T05:24:33;12.07;;;8.52;;
79074;SDS011;68476;42.710;23.388;2024-02-15T05:26:59;13.65;;;8.15;;
79074;SDS011;68476;42.710;23.388;2024-02-15T05:29:24;15.80;;;9.23;;
79074;SDS011;68476;42.710;23.388;2024-02-15T05:31:50;14.57;;;8.23;;
79074;SDS011;68476;42.710;23.388;2024-02-15T05:34:16;18.23;;;9.23;;
79074;SDS011;68476;42.710;23.388;2024-02-15T05:36:42;13.85;;;8.60;;
79074;SDS011;68476;42.710;23.388;2024-02-15T05:39:08;15.82;;;8.00;;
79074;SDS011;68476;42.710;23.388;2024-02-15T05:41:36;13.93;;;8.18;;
79074;SDS011;68476;42.710;23.388;2024-02-15T05:44:02;13.70;;;8.05;;
79074;SDS011;68476;42.710;23.388;2024-02-15T05:48:57;15.13;;;8.27;;
79074;SDS011;68476;42.710;23.388;2024-02-15T05:51:22;11.95;;;6.55;;
79074;SDS011;68476;42.710;23.388;2024-02-15T05:53:48;13.10;;;7.38;;
79074;SDS011;68476;42.710;23.388;2024-02-15T05:56:14;15.57;;;8.32;;
79074;SDS011;68476;42.710;23.388;2024-02-15T05:58:41;13.48;;;8.02;;
79074;SDS011;68476;42.710;23.388;2024-02-15T06:01:07;15.30;;;8.60;;
79074;SDS011;68476;42.710;23.388;2024-02-15T06:03:37;14.27;;;8.85;;
79074;SDS011;68476;42.710;23.388;2024-02-15T06:06:03;15.23;;;8.35;;
79074;SDS011;68476;42.710;23.388;2024-02-15T06:10:58;11.75;;;7.53;;
79074;SDS011;68476;42.710;23.388;2024-02-15T06:13:25;12.45;;;8.25;;
79074;SDS011;68476;42.710;23.388;2024-02-15T06:15:51;14.70;;;8.93;;
79074;SDS011;68476;42.710;23.388;2024-02-15T06:18:20;15.82;;;8.38;;
79074;SDS011;68476;42.710;23.388;2024-02-15T06:20:50;14.52;;;9.30;;
79074;SDS011;68476;42.710;23.388;2024-02-15T06:23:16;15.73;;;7.57;;
79074;SDS011;68476;42.710;23.388;2024-02-15T06:25:43;16.08;;;7.95;;
79074;SDS011;68476;42.710;23.388;2024-02-15T06:28:16;11.82;;;7.47;;
79074;SDS011;68476;42.710;23.388;2024-02-15T06:31:04;11.38;;;7.25;;
79074;SDS011;68476;42.710;23.388;2024-02-15T06:33:49;11.45;;;7.28;;
79074;SDS011;68476;42.710;23.388;2024-02-15T06:36:33;11.90;;;6.88;;
79074;SDS011;68476;42.710;23.388;2024-02-15T06:39:17;12.73;;;7.78;;
79074;SDS011;68476;42.710;23.388;2024-02-15T06:42:01;10.75;;;6.78;;
79074;SDS011;68476;42.710;23.388;2024-02-15T06:44:27;12.52;;;7.97;;
79074;SDS011;68476;42.710;23.388;2024-02-15T06:46:53;12.20;;;6.40;;
79074;SDS011;68476;42.710;23.388;2024-02-15T06:49:18;11.50;;;7.80;;
79074;SDS011;68476;42.710;23.388;2024-02-15T06:51:47;9.82;;;6.28;;
79074;SDS011;68476;42.710;23.388;2024-02-15T06:54:12;11.98;;;7.32;;
79074;SDS011;68476;42.710;23.388;2024-02-15T06:56:38;14.65;;;8.40;;
79074;SDS011;68476;42.710;23.388;2024-02-15T06:59:04;11.55;;;7.38;;
79074;SDS011;68476;42.710;23.388;2024-02-15T07:01:30;11.20;;;7.13;;
79074;SDS011;68476;42.710;23.388;2024-02-15T07:03:57;11.23;;;7.78;;
79074;SDS011;68476;42.710;23.388;2024-02-15T07:06:23;14.55;;;7.88;;
79074;SDS011;68476;42.710;23.388;2024-02-15T07:08:48;14.15;;;8.77;;
79074;SDS011;68476;42.710;23.388;2024-02-15T07:11:15;14.00;;;7.38;;
79074;SDS011;68476;42.710;23.388;2024-02-15T07:13:41;14.00;;;9.93;;
79074;SDS011;68476;42.710;23.388;2024-02-15T07:16:10;15.55;;;8.77;;
79074;SDS011;68476;42.710;23.388;2024-02-15T07:18:36;13.15;;;8.32;;
79074;SDS011;68476;42.710;23.388;2024-02-15T07:21:02;12.32;;;7.53;;
79074;SDS011;68476;42.710;23.388;2024-02-15T07:23:33;13.23;;;8.20;;
79074;SDS011;68476;42.710;23.388;2024-02-15T07:25:59;14.43;;;7.63;;
79074;SDS011;68476;42.710;23.388;2024-02-15T07:28:25;12.65;;;6.95;;
79074;SDS011;68476;42.710;23.388;2024-02-15T07:30:54;11.73;;;6.90;;
79074;SDS011;68476;42.710;23.388;2024-02-15T07:33:20;15.00;;;8.52;;
79074;SDS011;68476;42.710;23.388;2024-02-15T07:35:48;16.05;;;8.73;;
79074;SDS011;68476;42.710;23.388;2024-02-15T07:38:16;12.60;;;7.90;;
79074;SDS011;68476;42.710;23.388;2024-02-15T07:40:44;11.82;;;6.47;;
79074;SDS011;68476;42.710;23.388;2024-02-15T07:43:10;10.57;;;7.13;;
79074;SDS011;68476;42.710;23.388;2024-02-15T07:45:35;13.68;;;7.65;;
79074;SDS011;68476;42.710;23.388;2024-02-15T07:48:05;8.05;;;5.78;;
79074;SDS011;68476;42.710;23.388;2024-02-15T07:50:31;13.05;;;7.47;;
79074;SDS011;68476;42.710;23.388;2024-02-15T07:52:56;12.18;;;7.18;;
79074;SDS011;68476;42.710;23.388;2024-02-15T07:55:22;11.95;;;7.63;;
79074;SDS011;68476;42.710;23.388;2024-02-15T07:57:49;10.25;;;7.13;;
79074;SDS011;68476;42.710;23.388;2024-02-15T08:00:18;12.10;;;6.57;;
79074;SDS011;68476;42.710;23.388;2024-02-15T08:02:44;12.25;;;6.65;;
79074;SDS011;68476;42.710;23.388;2024-02-15T08:05:10;17.08;;;8.02;;
79074;SDS011;68476;42.710;23.388;2024-02-15T08:07:44;15.15;;;8.15;;
79074;SDS011;68476;42.710;23.388;2024-02-15T08:10:10;11.80;;;6.90;;
79074;SDS011;68476;42.710;23.388;2024-02-15T08:12:40;13.40;;;7.70;;
79074;SDS011;68476;42.710;23.388;2024-02-15T08:15:07;10.82;;;7.55;;
79074;SDS011;68476;42.710;23.388;2024-02-15T08:17:42;11.98;;;8.23;;
79074;SDS011;68476;42.710;23.388;2024-02-15T08:22:37;9.82;;;6.78;;
79074;SDS011;68476;42.710;23.388;2024-02-15T08:25:05;9.35;;;6.40;;
79074;SDS011;68476;42.710;23.388;2024-02-15T08:27:34;10.55;;;6.10;;
79074;SDS011;68476;42.710;23.388;2024-02-15T08:30:06;11.98;;;6.47;;
79074;SDS011;68476;42.710;23.388;2024-02-15T08:32:34;13.93;;;7.05;;
79074;SDS011;68476;42.710;23.388;2024-02-15T08:35:00;12.85;;;7.55;;
79074;SDS011;68476;42.710;23.388;2024-02-15T08:37:29;13.73;;;7.63;;
79074;SDS011;68476;42.710;23.388;2024-02-15T08:39:56;11.95;;;7.30;;
79074;SDS011;68476;42.710;23.388;2024-02-15T08:42:22;10.80;;;6.07;;
79074;SDS011;68476;42.710;23.388;2024-02-15T08:44:48;14.82;;;7.63;;
79074;SDS011;68476;42.710;23.388;2024-02-15T08:47:13;11.38;;;6.45;;
79074;SDS011;68476;42.710;23.388;2024-02-15T08:49:39;9.15;;;6.35;;
79074;SDS011;68476;42.710;23.388;2024-02-15T08:52:05;11.02;;;6.57;;
79074;SDS011;68476;42.710;23.388;2024-02-15T08:54:33;9.23;;;7.25;;
79074;SDS011;68476;42.710;23.388;2024-02-15T08:56:59;11.25;;;6.95;;
79074;SDS011;68476;42.710;23.388;2024-02-15T08:59:26;13.98;;;7.07;;
79074;SDS011;68476;42.710;23.388;2024-02-15T09:01:53;15.32;;;7.80;;
79074;SDS011;68476;42.710;23.388;2024-02-15T09:04:19;10.00;;;6.50;;
79074;SDS011;68476;42.710;23.388;2024-02-15T09:06:46;10.55;;;6.53;;
79074;SDS011;68476;42.710;23.388;2024-02-15T09:09:12;10.23;;;6.35;;
79074;SDS011;68476;42.710;23.388;2024-02-15T09:11:37;12.30;;;6.75;;
79074;SDS011;68476;42.710;23.388;2024-02-15T09:14:03;13.57;;;7.55;;
79074;SDS011;68476;42.710;23.388;2024-02-15T09:16:28;13.95;;;6.07;;
79074;SDS011;68476;42.710;23.388;2024-02-15T09:18:54;12.43;;;7.38;;
79074;SDS011;68476;42.710;23.388;2024-02-15T09:21:20;9.18;;;7.25;;
79074;SDS011;68476;42.710;23.388;2024-02-15T09:23:46;12.02;;;6.93;;
79074;SDS011;68476;42.710;23.388;2024-02-15T09:26:13;10.68;;;6.68;;
79074;SDS011;68476;42.710;23.388;2024-02-15T09:28:40;10.15;;;6.72;;
79074;SDS011;68476;42.710;23.388;2024-02-15T09:31:05;10.75;;;5.90;;
79074;SDS011;68476;42.710;23.388;2024-02-15T09:33:31;8.82;;;6.13;;
79074;SDS011;68476;42.710;23.388;2024-02-15T09:35:56;9.77;;;5.82;;
79074;SDS011;68476;42.710;23.388;2024-02-15T09:38:22;11.15;;;7.10;;
79074;SDS011;68476;42.710;23.388;2024-02-15T09:40:50;11.13;;;6.80;;
79074;SDS011;68476;42.710;23.388;2024-02-15T09:43:16;9.68;;;5.07;;
79074;SDS011;68476;42.710;23.388;2024-02-15T09:45:42;8.30;;;6.05;;
79074;SDS011;68476;42.710;23.388;2024-02-15T09:48:07;12.77;;;7.05;;
79074;SDS011;68476;42.710;23.388;2024-02-15T09:50:35;10.80;;;7.10;;
79074;SDS011;68476;42.710;23.388;2024-02-15T09:53:04;13.45;;;7.53;;
79074;SDS011;68476;42.710;23.388;2024-02-15T09:55:31;11.43;;;6.95;;
79074;SDS011;68476;42.710;23.388;2024-02-15T09:57:59;9.65;;;7.22;;
79074;SDS011;68476;42.710;23.388;2024-02-15T10:00:26;9.23;;;6.90;;
79074;SDS011;68476;42.710;23.388;2024-02-15T10:02:52;11.52;;;6.53;;
79074;SDS011;68476;42.710;23.388;2024-02-15T10:05:18;8.18;;;6.68;;
79074;SDS011;68476;42.710;23.388;2024-02-15T10:07:44;10.50;;;6.03;;
79074;SDS011;68476;42.710;23.388;2024-02-15T10:10:17;9.55;;;6.72;;
79074;SDS011;68476;42.710;23.388;2024-02-15T10:12:47;13.27;;;6.70;;
79074;SDS011;68476;42.710;23.388;2024-02-15T10:15:33;11.13;;;7.57;;
79074;SDS011;68476;42.710;23.388;2024-02-15T10:18:09;10.15;;;6.50;;
79074;SDS011;68476;42.710;23.388;2024-02-15T10:20:37;10.30;;;6.60;;
79074;SDS011;68476;42.710;23.388;2024-02-15T10:25:34;12.85;;;6.28;;
79074;SDS011;68476;42.710;23.388;2024-02-15T10:28:03;7.47;;;5.55;;
79074;SDS011;68476;42.710;23.388;2024-02-15T10:30:41;9.77;;;6.97;;
79074;SDS011;68476;42.710;23.388;2024-02-15T10:33:17;8.07;;;6.40;;
79074;SDS011;68476;42.710;23.388;2024-02-15T10:36:04;10.70;;;7.18;;
79074;SDS011;68476;42.710;23.388;2024-02-15T10:38:34;11.60;;;7.18;;
79074;SDS011;68476;42.710;23.388;2024-02-15T10:41:04;9.27;;;6.40;;
79074;SDS011;68476;42.710;23.388;2024-02-15T10:43:32;9.18;;;6.32;;
79074;SDS011;68476;42.710;23.388;2024-02-15T10:45:58;6.78;;;5.40;;
79074;SDS011;68476;42.710;23.388;2024-02-15T10:48:26;10.73;;;5.90;;
79074;SDS011;68476;42.710;23.388;2024-02-15T10:50:53;10.00;;;6.05;;
79074;SDS011;68476;42.710;23.388;2024-02-15T10:53:23;8.88;;;5.95;;
79074;SDS011;68476;42.710;23.388;2024-02-15T10:58:34;8.00;;;4.75;;
79074;SDS011;68476;42.710;23.388;2024-02-15T11:01:16;9.98;;;6.97;;
79074;SDS011;68476;42.710;23.388;2024-02-15T11:03:55;10.38;;;6.75;;
79074;SDS011;68476;42.710;23.388;2024-02-15T11:06:26;11.07;;;6.10;;
79074;SDS011;68476;42.710;23.388;2024-02-15T11:08:54;8.07;;;5.88;;
79074;SDS011;68476;42.710;23.388;2024-02-15T11:11:20;7.05;;;5.97;;
79074;SDS011;68476;42.710;23.388;2024-02-15T11:13:46;8.40;;;6.28;;
79074;SDS011;68476;42.710;23.388;2024-02-15T11:16:48;7.32;;;5.70;;
79074;SDS011;68476;42.710;23.388;2024-02-15T11:19:10;6.95;;;5.60;;
79074;SDS011;68476;42.710;23.388;2024-02-15T11:22:08;7.22;;;6.00;;
79074;SDS011;68476;42.710;23.388;2024-02-15T11:24:35;7.45;;;5.65;;
79074;SDS011;68476;42.710;23.388;2024-02-15T11:27:02;7.38;;;5.38;;
79074;SDS011;68476;42.710;23.388;2024-02-15T11:32:45;8.23;;;4.65;;
79074;SDS011;68476;42.710;23.388;2024-02-15T11:35:26;7.95;;;5.97;;
79074;SDS011;68476;42.710;23.388;2024-02-15T11:37:55;12.13;;;5.75;;
79074;SDS011;68476;42.710;23.388;2024-02-15T11:40:27;14.13;;;6.93;;
79074;SDS011;68476;42.710;23.388;2024-02-15T11:42:55;8.82;;;5.53;;
79074;SDS011;68476;42.710;23.388;2024-02-15T11:45:24;8.02;;;5.20;;
79074;SDS011;68476;42.710;23.388;2024-02-15T11:47:52;7.50;;;5.63;;
79074;SDS011;68476;42.710;23.388;2024-02-15T11:50:19;9.35;;;5.38;;
79074;SDS011;68476;42.710;23.388;2024-02-15T11:52:49;9.98;;;6.03;;
79074;SDS011;68476;42.710;23.388;2024-02-15T11:55:19;6.97;;;5.88;;
79074;SDS011;68476;42.710;23.388;2024-02-15T11:57:56;8.43;;;5.85;;
79074;SDS011;68476;42.710;23.388;2024-02-15T12:00:34;7.80;;;5.22;;
79074;SDS011;68476;42.710;23.388;2024-02-15T12:03:19;8.30;;;5.35;;
79074;SDS011;68476;42.710;23.388;2024-02-15T12:06:03;7.55;;;5.70;;
79074;SDS011;68476;42.710;23.388;2024-02-15T12:08:49;8.35;;;5.93;;
79074;SDS011;68476;42.710;23.388;2024-02-15T12:11:34;8.77;;;6.07;;
79074;SDS011;68476;42.710;23.388;2024-02-15T12:17:41;8.95;;;6.13;;
79074;SDS011;68476;42.710;23.388;2024-02-15T12:20:25;8.25;;;5.90;;
79074;SDS011;68476;42.710;23.388;2024-02-15T12:22:51;9.25;;;6.20;;
79074;SDS011;68476;42.710;23.388;2024-02-15T12:25:18;8.85;;;6.18;;
79074;SDS011;68476;42.710;23.388;2024-02-15T12:27:46;9.68;;;6.68;;
79074;SDS011;68476;42.710;23.388;2024-02-15T12:30:17;10.18;;;6.57;;
79074;SDS011;68476;42.710;23.388;2024-02-15T12:32:46;8.20;;;6.43;;
79074;SDS011;68476;42.710;23.388;2024-02-15T12:35:16;7.90;;;5.97;;
79074;SDS011;68476;42.710;23.388;2024-02-15T12:37:46;8.45;;;6.25;;
79074;SDS011;68476;42.710;23.388;2024-02-15T12:45:19;8.50;;;5.90;;
79074;SDS011;68476;42.710;23.388;2024-02-15T12:47:52;7.85;;;5.40;;
79074;SDS011;68476;42.710;23.388;2024-02-15T12:50:22;16.58;;;6.45;;
79074;SDS011;68476;42.710;23.388;2024-02-15T12:52:57;7.32;;;5.03;;
79074;SDS011;68476;42.710;23.388;2024-02-15T12:55:32;8.38;;;5.22;;
79074;SDS011;68476;42.710;23.388;2024-02-15T12:58:01;6.53;;;4.60;;
79074;SDS011;68476;42.710;23.388;2024-02-15T13:00:33;6.75;;;5.10;;
79074;SDS011;68476;42.710;23.388;2024-02-15T13:03:05;11.70;;;5.22;;
79074;SDS011;68476;42.710;23.388;2024-02-15T13:05:40;7.05;;;4.60;;
79074;SDS011;68476;42.710;23.388;2024-02-15T13:08:06;7.78;;;5.70;;
79074;SDS011;68476;42.710;23.388;2024-02-15T13:10:35;7.82;;;5.43;;
79074;SDS011;68476;42.710;23.388;2024-02-15T13:13:04;7.32;;;4.95;;
79074;SDS011;68476;42.710;23.388;2024-02-15T13:15:30;9.10;;;5.75;;
79074;SDS011;68476;42.710;23.388;2024-02-15T13:17:59;9.88;;;5.65;;
79074;SDS011;68476;42.710;23.388;2024-02-15T13:20:25;8.43;;;5.93;;
79074;SDS011;68476;42.710;23.388;2024-02-15T13:22:58;10.88;;;5.65;;
79074;SDS011;68476;42.710;23.388;2024-02-15T13:25:25;12.13;;;5.70;;
79074;SDS011;68476;42.710;23.388;2024-02-15T13:27:51;7.22;;;5.07;;
79074;SDS011;68476;42.710;23.388;2024-02-15T13:30:16;8.10;;;5.40;;
79074;SDS011;68476;42.710;23.388;2024-02-15T13:32:48;7.25;;;5.55;;
79074;SDS011;68476;42.710;23.388;2024-02-15T13:35:15;10.82;;;5.50;;
79074;SDS011;68476;42.710;23.388;2024-02-15T13:37:51;7.53;;;4.85;;
79074;SDS011;68476;42.710;23.388;2024-02-15T13:40:17;8.75;;;5.18;;
79074;SDS011;68476;42.710;23.388;2024-02-15T13:42:45;8.30;;;6.00;;
79074;SDS011;68476;42.710;23.388;2024-02-15T13:45:17;9.73;;;6.10;;
79074;SDS011;68476;42.710;23.388;2024-02-15T13:48:04;6.82;;;4.82;;
79074;SDS011;68476;42.710;23.388;2024-02-15T13:50:32;7.85;;;5.63;;
79074;SDS011;68476;42.710;23.388;2024-02-15T13:52:58;7.88;;;4.88;;
79074;SDS011;68476;42.710;23.388;2024-02-15T13:55:23;13.68;;;7.07;;
79074;SDS011;68476;42.710;23.388;2024-02-15T13:57:50;8.95;;;5.30;;
79074;SDS011;68476;42.710;23.388;2024-02-15T14:00:17;3.95;;;2.90;;
79074;SDS011;68476;42.710;23.388;2024-02-15T14:02:47;8.88;;;4.97;;
79074;SDS011;68476;42.710;23.388;2024-02-15T14:05:16;8.93;;;4.72;;
79074;SDS011;68476;42.710;23.388;2024-02-15T14:07:48;7.03;;;5.22;;
79074;SDS011;68476;42.710;23.388;2024-02-15T14:10:15;13.18;;;6.00;;
79074;SDS011;68476;42.710;23.388;2024-02-15T14:12:43;7.28;;;5.13;;
79074;SDS011;68476;42.710;23.388;2024-02-15T14:15:10;7.38;;;5.20;;
79074;SDS011;68476;42.710;23.388;2024-02-15T14:17:37;8.15;;;5.40;;
79074;SDS011;68476;42.710;23.388;2024-02-15T14:20:03;8.60;;;5.15;;
79074;SDS011;68476;42.710;23.388;2024-02-15T14:22:33;7.60;;;5.35;;
79074;SDS011;68476;42.710;23.388;2024-02-15T14:24:59;6.72;;;4.88;;
79074;SDS011;68476;42.710;23.388;2024-02-15T14:27:24;9.45;;;5.45;;
79074;SDS011;68476;42.710;23.388;2024-02-15T14:29:50;7.60;;;5.60;;
79074;SDS011;68476;42.710;23.388;2024-02-15T14:32:34;10.30;;;5.72;;
79074;SDS011;68476;42.710;23.388;2024-02-15T14:35:18;10.63;;;5.50;;
79074;SDS011;68476;42.710;23.388;2024-02-15T14:37:46;8.10;;;4.90;;
79074;SDS011;68476;42.710;23.388;2024-02-15T14:40:12;8.93;;;5.40;;
79074;SDS011;68476;42.710;23.388;2024-02-15T14:42:42;11.68;;;6.95;;
79074;SDS011;68476;42.710;23.388;2024-02-15T14:45:10;5.07;;;3.72;;
79074;SDS011;68476;42.710;23.388;2024-02-15T14:47:37;8.60;;;5.80;;
79074;SDS011;68476;42.710;23.388;2024-02-15T14:50:03;7.75;;;5.32;;
79074;SDS011;68476;42.710;23.388;2024-02-15T14:52:33;6.68;;;5.25;;
79074;SDS011;68476;42.710;23.388;2024-02-15T14:54:59;9.48;;;5.20;;
79074;SDS011;68476;42.710;23.388;2024-02-15T14:57:24;9.30;;;5.63;;